Time;durP1;ratioP1;P1;durP2;ratioP2;P2;SDS_P1;SDS_P2;PMS_P1;PMS_P2;Temp;Humidity;BMP_temperature;BMP_pressure;BME280_temperature;BME280_humidity;BME280_pressure;Samples;Min_cycle;Max_cycle;Signal;HPM_P1;HPM_P2
2022/01/13 00:00:07;;;;;;;3.53;2.47;;;-2.10;85.30;;;;;;4956441;28;20192;-77
2022/01/13 00:02:35;;;;;;;3.90;2.47;;;-2.20;85.60;;;;;;4956335;28;20187;-77
2022/01/13 00:05:01;;;;;;;2.47;1.60;;;-2.20;85.80;;;;;;4962233;28;20202;-76
2022/01/13 00:07:27;;;;;;;3.67;2.07;;;-2.20;85.80;;;;;;4957244;28;20677;-77
2022/01/13 00:09:53;;;;;;;4.17;2.50;;;-2.30;85.80;;;;;;4959917;28;20279;-77
2022/01/13 00:12:21;;;;;;;2.90;2.70;;;-2.30;85.90;;;;;;4959275;28;20249;-77
2022/01/13 00:17:44;;;;;;;1.77;1.67;;;-2.30;85.80;;;;;;4956747;28;20597;-75
2022/01/13 00:20:47;;;;;;;2.87;2.70;;;-2.40;86.10;;;;;;4957557;28;20195;-75
2022/01/13 00:25:41;;;;;;;6.07;2.67;;;-2.50;86.60;;;;;;4964689;28;20205;-76
2022/01/13 00:28:16;;;;;;;7.10;2.70;;;-2.60;86.60;;;;;;4965315;28;20237;-76
2022/01/13 00:30:42;;;;;;;1.97;1.87;;;-2.60;86.40;;;;;;4965471;28;20200;-75
2022/01/13 00:33:10;;;;;;;6.37;3.47;;;-2.60;86.60;;;;;;5012680;28;20191;-76
2022/01/13 00:35:37;;;;;;;3.00;2.70;;;-2.70;86.60;;;;;;5046265;28;20188;-76
2022/01/13 00:38:03;;;;;;;4.63;3.73;;;-2.70;86.70;;;;;;5049703;28;20624;-75
2022/01/13 00:40:28;;;;;;;4.03;3.13;;;-2.90;86.60;;;;;;5046184;28;20179;-77
2022/01/13 00:42:54;;;;;;;6.87;3.23;;;-2.90;86.60;;;;;;5048264;28;20188;-76
2022/01/13 00:45:20;;;;;;;3.17;2.90;;;-3.00;86.80;;;;;;5045385;28;20200;-76
2022/01/13 00:47:45;;;;;;;3.67;2.50;;;-3.10;87.00;;;;;;5053364;28;20218;-76
2022/01/13 00:50:11;;;;;;;2.33;1.97;;;-3.20;87.30;;;;;;5044757;28;21318;-76
2022/01/13 00:52:37;;;;;;;2.20;2.00;;;-3.20;87.60;;;;;;5061001;28;20194;-76
2022/01/13 00:55:04;;;;;;;6.37;2.37;;;-3.30;87.90;;;;;;5052143;28;20189;-77
2022/01/13 00:57:31;;;;;;;1.43;1.43;;;-3.30;88.10;;;;;;5051908;28;20275;-77
2022/01/13 00:59:58;;;;;;;2.13;1.67;;;-3.40;88.30;;;;;;5047621;28;20234;-76
2022/01/13 01:02:24;;;;;;;4.50;2.23;;;-3.30;88.30;;;;;;5044680;28;20290;-77
2022/01/13 01:04:50;;;;;;;4.63;2.60;;;-3.30;88.20;;;;;;5047192;28;20265;-76
2022/01/13 01:07:16;;;;;;;3.77;2.60;;;-3.30;88.20;;;;;;5047367;28;20294;-75
2022/01/13 01:09:48;;;;;;;1.80;1.70;;;-3.20;88.00;;;;;;5050181;28;20187;-76
2022/01/13 01:12:15;;;;;;;3.00;2.80;;;-3.30;87.90;;;;;;5048166;28;20182;-75
2022/01/13 01:14:46;;;;;;;2.40;2.30;;;-3.30;88.00;;;;;;5048686;28;20270;-77
2022/01/13 01:17:17;;;;;;;5.60;3.07;;;-3.30;88.10;;;;;;5046894;28;20190;-76
2022/01/13 01:19:47;;;;;;;3.47;2.20;;;-3.30;88.00;;;;;;5049331;28;20179;-75
2022/01/13 01:22:40;;;;;;;5.20;3.70;;;-3.30;88.00;;;;;;5049333;28;20444;-75
2022/01/13 01:27:45;;;;;;;3.03;2.33;;;-3.40;88.10;;;;;;5052977;28;20273;-76
2022/01/13 01:30:23;;;;;;;6.23;2.03;;;-3.40;88.10;;;;;;5051260;28;20207;-75
2022/01/13 01:32:49;;;;;;;2.60;2.50;;;-3.50;88.20;;;;;;5051751;28;20215;-75
2022/01/13 01:35:17;;;;;;;3.10;1.73;;;-3.50;88.20;;;;;;5046956;28;20184;-77
2022/01/13 01:37:44;;;;;;;3.33;2.27;;;-3.50;88.20;;;;;;5044105;28;20882;-77
2022/01/13 01:40:11;;;;;;;1.83;1.73;;;-3.50;88.10;;;;;;5043496;28;20214;-77
2022/01/13 01:42:38;;;;;;;2.57;2.10;;;-3.60;88.10;;;;;;5042540;28;20209;-77
2022/01/13 01:45:08;;;;;;;1.87;1.77;;;-3.60;87.90;;;;;;5041514;28;20547;-77
2022/01/13 01:47:34;;;;;;;3.40;3.03;;;-3.70;88.10;;;;;;5042397;28;20668;-77
2022/01/13 01:50:11;;;;;;;6.67;3.50;;;-3.70;88.30;;;;;;5041947;28;20181;-77
2022/01/13 01:52:39;;;;;;;3.37;1.93;;;-3.70;88.40;;;;;;5041453;28;20190;-77
2022/01/13 01:55:07;;;;;;;4.90;2.67;;;-3.70;88.50;;;;;;5042985;28;20677;-76
2022/01/13 01:57:33;;;;;;;2.30;2.20;;;-3.70;88.50;;;;;;5044257;28;20210;-77
2022/01/13 01:59:59;;;;;;;2.87;2.67;;;-3.70;88.50;;;;;;5041931;28;20181;-76
2022/01/13 02:02:27;;;;;;;6.57;1.93;;;-3.70;88.20;;;;;;5055549;28;20186;-77
2022/01/13 02:04:53;;;;;;;1.43;1.33;;;-3.70;88.20;;;;;;5043281;28;20233;-77
2022/01/13 02:07:19;;;;;;;4.00;2.90;;;-3.60;88.10;;;;;;5042834;28;20670;-76
2022/01/13 02:09:50;;;;;;;2.73;2.03;;;-3.60;87.90;;;;;;5043777;28;20181;-76
2022/01/13 02:12:26;;;;;;;2.97;2.53;;;-3.60;87.80;;;;;;5043973;28;20571;-76
2022/01/13 02:14:59;;;;;;;4.77;3.57;;;-3.60;87.90;;;;;;5046928;28;20182;-76
2022/01/13 02:17:28;;;;;;;3.43;2.07;;;-3.60;87.70;;;;;;5043108;28;20845;-76
2022/01/13 02:19:56;;;;;;;2.87;2.67;;;-3.60;87.40;;;;;;5044415;28;20183;-76
2022/01/13 02:22:23;;;;;;;1.97;1.27;;;-3.60;87.50;;;;;;5041884;28;20182;-77
2022/01/13 02:24:49;;;;;;;2.63;2.33;;;-3.60;87.40;;;;;;5036849;28;20182;-75
2022/01/13 02:27:15;;;;;;;5.83;3.27;;;-3.60;87.50;;;;;;5042625;28;20206;-76
2022/01/13 02:29:41;;;;;;;1.70;1.67;;;-3.60;87.40;;;;;;5044458;28;20194;-75
2022/01/13 02:32:07;;;;;;;2.23;1.90;;;-3.60;87.30;;;;;;5056179;28;20223;-76
2022/01/13 02:34:33;;;;;;;7.13;3.83;;;-3.70;87.40;;;;;;5048116;28;20657;-76
2022/01/13 02:37:00;;;;;;;2.90;2.63;;;-3.70;87.50;;;;;;5044119;28;20185;-76
2022/01/13 02:39:27;;;;;;;2.80;2.37;;;-3.70;87.50;;;;;;5044204;28;20250;-76
2022/01/13 02:41:54;;;;;;;1.70;1.37;;;-3.70;87.60;;;;;;5044709;28;20191;-76
2022/01/13 02:44:22;;;;;;;8.90;2.67;;;-3.70;87.90;;;;;;5049243;28;20190;-76
2022/01/13 02:49:17;;;;;;;3.33;1.70;;;-3.80;88.20;;;;;;5043748;28;20187;-76
2022/01/13 02:51:45;;;;;;;3.67;3.37;;;-3.80;88.20;;;;;;5047348;28;20568;-75
2022/01/13 02:54:11;;;;;;;3.37;2.50;;;-3.90;88.10;;;;;;5043568;28;20237;-76
2022/01/13 02:56:37;;;;;;;2.47;2.27;;;-3.90;88.00;;;;;;5045103;28;20701;-76
2022/01/13 02:59:05;;;;;;;3.30;2.13;;;-4.00;87.80;;;;;;5044303;28;20178;-76
2022/01/13 03:01:32;;;;;;;4.43;2.10;;;-4.00;87.70;;;;;;5043623;28;20201;-76
2022/01/13 03:04:01;;;;;;;2.57;1.50;;;-4.00;87.70;;;;;;5042832;28;20553;-75
2022/01/13 03:06:35;;;;;;;5.53;2.97;;;-4.00;87.60;;;;;;5042060;28;20202;-76
2022/01/13 03:09:05;;;;;;;4.30;1.63;;;-4.00;87.40;;;;;;5044472;28;20613;-76
2022/01/13 03:11:37;;;;;;;4.47;2.40;;;-4.00;87.50;;;;;;5045001;28;20324;-76
2022/01/13 03:14:10;;;;;;;3.03;2.47;;;-4.00;87.60;;;;;;5044134;28;20252;-76
2022/01/13 03:16:37;;;;;;;3.13;2.00;;;-4.00;87.60;;;;;;5043027;28;20278;-78
2022/01/13 03:19:03;;;;;;;2.43;2.33;;;-4.00;87.40;;;;;;5043234;28;20343;-78
2022/01/13 03:21:29;;;;;;;9.77;2.27;;;-4.00;87.30;;;;;;5043952;28;20541;-75
2022/01/13 03:23:55;;;;;;;3.07;2.87;;;-4.00;87.30;;;;;;5043720;28;20184;-76
2022/01/13 03:26:22;;;;;;;2.40;2.17;;;-4.10;87.10;;;;;;5042343;28;20182;-75
2022/01/13 03:29:04;;;;;;;2.37;1.80;;;-4.10;87.10;;;;;;5043133;28;20280;-75
2022/01/13 03:31:30;;;;;;;11.60;1.90;;;-4.10;86.90;;;;;;5041324;28;20283;-76
2022/01/13 03:33:55;;;;;;;1.33;1.33;;;-4.00;87.00;;;;;;5045022;28;20182;-76
2022/01/13 03:36:21;;;;;;;3.50;2.60;;;-4.00;86.60;;;;;;5049161;28;20643;-76
2022/01/13 03:38:47;;;;;;;2.37;1.47;;;-4.10;86.50;;;;;;5051270;28;20190;-76
2022/01/13 03:41:14;;;;;;;4.27;2.00;;;-4.10;86.50;;;;;;5045890;28;20869;-76
2022/01/13 03:43:40;;;;;;;2.03;1.93;;;-4.00;86.40;;;;;;5044242;28;20197;-76
2022/01/13 03:46:06;;;;;;;3.97;2.00;;;-4.00;86.40;;;;;;5043323;28;20186;-76
2022/01/13 03:48:32;;;;;;;2.80;2.53;;;-4.10;86.10;;;;;;5044944;28;20618;-76
2022/01/13 03:50:58;;;;;;;4.27;1.87;;;-4.10;86.00;;;;;;5046233;28;20291;-76
2022/01/13 03:53:30;;;;;;;1.80;1.70;;;-4.10;85.80;;;;;;5039396;28;21043;-76
2022/01/13 03:56:33;;;;;;;4.40;1.97;;;-4.20;85.60;;;;;;5038123;28;20182;-76
2022/01/13 03:59:31;;;;;;;2.93;2.40;;;-4.20;85.70;;;;;;5046957;28;20197;-77
2022/01/13 04:02:01;;;;;;;0.87;0.87;;;-4.20;85.80;;;;;;5041095;28;20195;-76
2022/01/13 04:04:29;;;;;;;1.77;1.23;;;-4.10;85.70;;;;;;5044481;28;20229;-75
2022/01/13 04:07:11;;;;;;;2.37;2.17;;;-4.10;85.60;;;;;;5043845;28;20569;-77
2022/01/13 04:09:40;;;;;;;1.17;1.17;;;-4.10;85.50;;;;;;5044413;28;20238;-75
2022/01/13 04:12:09;;;;;;;2.23;1.80;;;-4.10;85.40;;;;;;5042824;28;20177;-77
2022/01/13 04:17:09;;;;;;;2.07;2.00;;;-4.20;85.30;;;;;;5042150;28;20246;-75
2022/01/13 04:19:34;;;;;;;2.07;1.73;;;-4.20;85.30;;;;;;5059238;28;20189;-76
2022/01/13 04:22:02;;;;;;;1.63;1.27;;;-4.20;85.30;;;;;;5046957;28;20183;-76
2022/01/13 04:24:28;;;;;;;4.10;2.13;;;-4.10;85.40;;;;;;5044575;28;20192;-76
2022/01/13 04:26:55;;;;;;;2.10;1.57;;;-4.20;85.00;;;;;;5043689;28;20179;-76
2022/01/13 04:29:30;;;;;;;3.07;1.43;;;-4.20;85.10;;;;;;5041317;28;20267;-76
2022/01/13 04:31:55;;;;;;;1.87;1.60;;;-4.20;85.00;;;;;;5039070;28;20313;-76
2022/01/13 04:34:21;;;;;;;4.90;1.60;;;-4.20;85.00;;;;;;5043502;28;21035;-76
2022/01/13 04:36:48;;;;;;;2.43;2.23;;;-4.20;85.00;;;;;;5043454;28;20197;-76
2022/01/13 04:39:14;;;;;;;2.00;1.60;;;-4.20;84.90;;;;;;5046227;28;20212;-76
2022/01/13 04:41:44;;;;;;;4.87;2.90;;;-4.20;85.00;;;;;;5041003;28;20199;-76
2022/01/13 04:44:14;;;;;;;2.13;1.97;;;-4.20;84.90;;;;;;5040197;28;20206;-76
2022/01/13 04:46:40;;;;;;;2.97;2.53;;;-4.20;84.90;;;;;;5039284;28;20247;-76
2022/01/13 04:49:07;;;;;;;0.93;0.63;;;-4.20;84.80;;;;;;5043119;28;20416;-75
2022/01/13 04:51:33;;;;;;;2.20;2.00;;;-4.20;84.70;;;;;;5044819;28;20313;-76
2022/01/13 04:53:59;;;;;;;2.63;2.40;;;-4.10;84.50;;;;;;5045195;28;20278;-76
2022/01/13 04:56:30;;;;;;;2.13;1.97;;;-4.10;84.40;;;;;;5042279;28;20239;-75
2022/01/13 04:58:57;;;;;;;9.77;1.97;;;-4.10;84.20;;;;;;5042025;28;20191;-76
2022/01/13 05:01:23;;;;;;;2.90;2.60;;;-4.10;84.10;;;;;;5040681;28;20243;-76
2022/01/13 05:03:49;;;;;;;2.10;1.90;;;-4.20;84.00;;;;;;5042926;28;20688;-76
2022/01/13 05:06:19;;;;;;;2.13;2.10;;;-4.20;84.00;;;;;;5045397;28;20244;-76
2022/01/13 05:08:45;;;;;;;2.03;1.87;;;-4.20;84.20;;;;;;5041797;28;20381;-74
2022/01/13 05:11:11;;;;;;;2.57;2.10;;;-4.20;84.30;;;;;;5040226;28;20179;-76
2022/01/13 05:13:37;;;;;;;3.90;2.23;;;-4.30;84.20;;;;;;5042118;28;20190;-75
2022/01/13 05:16:03;;;;;;;5.33;2.13;;;-4.30;84.30;;;;;;5048812;28;20177;-75
2022/01/13 05:21:55;;;;;;;4.97;2.47;;;-4.20;84.20;;;;;;5058092;28;20203;-75
2022/01/13 05:24:09;;;;;;;1.33;1.23;;;-4.20;83.90;;;;;;5058904;28;20711;-75
2022/01/13 05:26:35;;;;;;;4.50;1.57;;;-4.20;84.00;;;;;;5058618;28;20196;-74
2022/01/13 05:29:01;;;;;;;1.13;1.13;;;-4.20;83.60;;;;;;5059177;28;20221;-75
2022/01/13 05:31:26;;;;;;;1.30;0.90;;;-4.20;83.70;;;;;;5056961;28;20216;-75
2022/01/13 05:33:52;;;;;;;2.43;2.20;;;-4.20;83.50;;;;;;5056980;28;20192;-76
2022/01/13 05:36:18;;;;;;;1.10;1.10;;;-4.20;83.50;;;;;;5060098;28;20185;-76
2022/01/13 05:38:43;;;;;;;1.33;1.20;;;-4.20;83.50;;;;;;5059003;28;20192;-76
2022/01/13 05:41:10;;;;;;;2.07;1.80;;;-4.20;83.50;;;;;;5066811;28;20184;-76
2022/01/13 05:43:36;;;;;;;1.33;1.33;;;-4.20;83.40;;;;;;5070319;28;20253;-75
2022/01/13 05:46:02;;;;;;;0.67;0.67;;;-4.20;83.30;;;;;;5066643;28;20206;-76
2022/01/13 05:48:28;;;;;;;1.80;1.53;;;-4.20;83.20;;;;;;5065155;28;20220;-74
2022/01/13 05:50:54;;;;;;;1.80;1.73;;;-4.20;83.10;;;;;;5042212;28;20190;-75
2022/01/13 05:53:20;;;;;;;1.30;1.30;;;-4.20;82.90;;;;;;5058366;28;20307;-74
2022/01/13 05:55:46;;;;;;;3.80;2.30;;;-4.30;82.80;;;;;;5058466;28;20227;-74
2022/01/13 05:58:11;;;;;;;1.37;1.27;;;-4.30;82.70;;;;;;5045070;28;20704;-74
2022/01/13 06:00:37;;;;;;;3.57;2.27;;;-4.30;82.80;;;;;;5038247;28;20759;-74
2022/01/13 06:03:04;;;;;;;2.10;1.97;;;-4.30;83.00;;;;;;5039870;28;20640;-74
2022/01/13 06:05:31;;;;;;;1.50;1.40;;;-4.30;83.10;;;;;;5046897;28;20171;-74
2022/01/13 06:07:57;;;;;;;1.47;1.47;;;-4.30;83.30;;;;;;5043005;28;20217;-74
2022/01/13 06:10:23;;;;;;;1.33;1.23;;;-4.40;83.20;;;;;;5047756;28;20186;-75
2022/01/13 06:12:51;;;;;;;1.47;1.47;;;-4.40;83.40;;;;;;5047748;28;20193;-73
2022/01/13 06:15:19;;;;;;;2.07;1.97;;;-4.50;83.60;;;;;;5046849;28;20418;-73
2022/01/13 06:17:48;;;;;;;3.10;1.30;;;-4.50;83.70;;;;;;5044921;28;20193;-74
2022/01/13 06:20:15;;;;;;;5.67;2.07;;;-4.50;84.00;;;;;;5042743;28;20184;-75
2022/01/13 06:22:42;;;;;;;4.57;1.97;;;-4.50;84.00;;;;;;5042953;28;20207;-74
2022/01/13 06:25:09;;;;;;;1.83;1.73;;;-4.50;84.10;;;;;;5042098;28;20277;-75
2022/01/13 06:27:35;;;;;;;0.77;0.77;;;-4.50;83.80;;;;;;5045894;28;20323;-76
2022/01/13 06:30:02;;;;;;;1.20;1.10;;;-4.50;83.80;;;;;;5046548;28;20184;-74
2022/01/13 06:32:28;;;;;;;1.53;1.37;;;-4.50;83.60;;;;;;5045346;28;20917;-75
2022/01/13 06:34:54;;;;;;;2.73;2.53;;;-4.50;83.70;;;;;;5044482;28;20192;-73
2022/01/13 06:37:20;;;;;;;2.03;1.63;;;-4.50;83.90;;;;;;5045754;28;20983;-74
2022/01/13 06:39:47;;;;;;;3.50;3.30;;;-4.50;83.80;;;;;;5043621;28;20194;-76
2022/01/13 06:42:13;;;;;;;7.67;2.60;;;-4.50;83.70;;;;;;5048929;28;20189;-76
2022/01/13 06:44:39;;;;;;;1.27;1.17;;;-4.40;83.60;;;;;;5049894;28;20261;-76
2022/01/13 06:47:06;;;;;;;3.60;1.90;;;-4.50;82.60;;;;;;5044247;28;20296;-74
2022/01/13 06:49:33;;;;;;;3.70;2.33;;;-4.50;82.30;;;;;;5038758;28;20177;-76
2022/01/13 06:51:59;;;;;;;1.80;1.50;;;-4.60;82.30;;;;;;5047342;28;20192;-74
2022/01/13 06:54:25;;;;;;;2.00;1.87;;;-4.70;82.20;;;;;;5038543;28;20215;-75
2022/01/13 06:56:52;;;;;;;1.77;1.67;;;-4.70;82.60;;;;;;5039736;28;20226;-72
2022/01/13 06:59:19;;;;;;;1.03;1.00;;;-4.80;82.30;;;;;;5043804;28;20187;-75
2022/01/13 07:01:46;;;;;;;3.67;2.80;;;-4.80;82.30;;;;;;5042620;28;20180;-73
2022/01/13 07:04:13;;;;;;;1.70;1.63;;;-4.80;81.90;;;;;;5045266;28;20188;-74
2022/01/13 07:06:39;;;;;;;4.00;1.33;;;-4.90;81.70;;;;;;5043853;28;20199;-73
2022/01/13 07:09:14;;;;;;;0.60;0.60;;;-4.90;81.60;;;;;;5045137;28;20308;-76
2022/01/13 07:11:41;;;;;;;2.97;1.67;;;-5.00;81.60;;;;;;5045976;28;20187;-76
2022/01/13 07:14:07;;;;;;;1.33;1.33;;;-5.00;81.70;;;;;;5044742;28;20751;-73
2022/01/13 07:16:33;;;;;;;1.50;1.13;;;-5.00;81.70;;;;;;5046009;28;20219;-75
2022/01/13 07:18:59;;;;;;;1.53;1.53;;;-5.00;82.00;;;;;;5045689;28;20230;-73
2022/01/13 07:21:27;;;;;;;2.93;1.03;;;-4.90;81.90;;;;;;5045081;28;20207;-73
2022/01/13 07:23:54;;;;;;;1.33;1.23;;;-4.90;81.80;;;;;;5044791;28;20184;-73
2022/01/13 07:26:19;;;;;;;3.07;1.50;;;-4.90;81.90;;;;;;5045775;28;20192;-73
2022/01/13 07:28:45;;;;;;;2.93;1.93;;;-4.90;82.20;;;;;;5044997;28;20215;-73
2022/01/13 07:31:14;;;;;;;2.07;2.07;;;-4.80;82.10;;;;;;5044501;28;20263;-74
2022/01/13 07:33:43;;;;;;;1.23;1.17;;;-4.80;82.10;;;;;;5044008;28;20184;-74
2022/01/13 07:36:09;;;;;;;1.60;1.50;;;-4.70;82.00;;;;;;5043882;28;20252;-74
2022/01/13 07:38:34;;;;;;;2.73;0.90;;;-4.70;81.80;;;;;;5044848;28;20274;-74
2022/01/13 07:41:00;;;;;;;1.70;1.43;;;-4.70;81.20;;;;;;5044410;28;20284;-74
2022/01/13 07:43:26;;;;;;;1.23;1.23;;;-4.70;81.10;;;;;;5043923;28;20191;-74
2022/01/13 07:45:53;;;;;;;1.67;1.47;;;-4.70;81.20;;;;;;5044399;28;20771;-74
2022/01/13 07:48:20;;;;;;;1.57;1.57;;;-4.50;81.10;;;;;;5043209;28;20233;-74
2022/01/13 07:50:48;;;;;;;2.13;2.00;;;-4.50;81.00;;;;;;5043683;28;20208;-74
2022/01/13 07:53:14;;;;;;;1.17;1.17;;;-4.50;80.30;;;;;;5044016;28;21269;-74
2022/01/13 07:55:40;;;;;;;1.57;1.50;;;-4.50;79.50;;;;;;5044067;28;20189;-74
2022/01/13 07:58:06;;;;;;;1.23;1.23;;;-4.60;79.60;;;;;;5018255;28;1183340;-74
2022/01/13 08:00:32;;;;;;;1.13;1.10;;;-4.70;79.50;;;;;;5043428;28;20184;-74
2022/01/13 08:02:57;;;;;;;1.10;1.10;;;-4.70;79.70;;;;;;5045393;28;20250;-73
2022/01/13 08:05:23;;;;;;;1.90;1.27;;;-4.70;79.90;;;;;;5043891;28;20185;-73
2022/01/13 08:07:49;;;;;;;2.07;1.30;;;-4.70;79.80;;;;;;5045413;28;20213;-73
2022/01/13 08:10:15;;;;;;;2.13;1.03;;;-4.80;79.90;;;;;;5045043;28;20182;-73
2022/01/13 08:12:41;;;;;;;1.70;1.33;;;-4.80;80.20;;;;;;5045083;28;20652;-73
2022/01/13 08:15:10;;;;;;;1.13;1.13;;;-4.80;79.90;;;;;;5044295;28;20186;-74
2022/01/13 08:20:20;;;;;;;1.90;1.10;;;-4.70;79.90;;;;;;5044511;28;20672;-73
2022/01/13 08:22:45;;;;;;;2.73;1.27;;;-4.60;79.10;;;;;;5044036;28;20184;-73
2022/01/13 08:25:12;;;;;;;0.73;0.73;;;-4.50;78.90;;;;;;5043050;28;20690;-74
2022/01/13 08:27:38;;;;;;;1.57;1.57;;;-4.50;78.70;;;;;;5042103;28;20234;-76
2022/01/13 08:30:07;;;;;;;1.27;0.77;;;-4.40;77.90;;;;;;5043917;28;20247;-73
2022/01/13 08:32:33;;;;;;;2.20;1.53;;;-4.50;77.60;;;;;;5042493;28;20185;-73
2022/01/13 08:34:58;;;;;;;3.27;1.40;;;-4.40;77.90;;;;;;5043517;28;20180;-74
2022/01/13 08:37:25;;;;;;;1.63;1.53;;;-4.30;77.60;;;;;;5043396;28;20184;-74
2022/01/13 08:39:52;;;;;;;0.70;0.70;;;-4.30;77.10;;;;;;5043981;28;20658;-74
2022/01/13 08:42:17;;;;;;;3.40;1.43;;;-4.20;77.10;;;;;;5043563;28;20172;-74
2022/01/13 08:44:43;;;;;;;1.67;1.30;;;-4.10;76.80;;;;;;5043636;28;20708;-75
2022/01/13 08:47:09;;;;;;;1.90;1.90;;;-4.10;76.80;;;;;;5044214;28;20184;-75
2022/01/13 08:49:36;;;;;;;0.87;0.83;;;-4.10;76.50;;;;;;5042326;28;20208;-74
2022/01/13 08:52:03;;;;;;;1.53;1.43;;;-4.10;76.10;;;;;;5041962;28;20183;-73
2022/01/13 08:54:29;;;;;;;1.33;1.33;;;-4.10;76.10;;;;;;5044216;28;20213;-73
2022/01/13 08:56:57;;;;;;;1.07;0.97;;;-3.90;76.20;;;;;;5043004;28;20220;-74
2022/01/13 08:59:23;;;;;;;0.90;0.90;;;-3.70;75.80;;;;;;5043034;28;20193;-74
2022/01/13 09:01:49;;;;;;;0.83;0.83;;;-3.50;75.10;;;;;;5043602;28;20183;-74
2022/01/13 09:04:14;;;;;;;2.30;1.80;;;-3.40;74.10;;;;;;5043362;28;20221;-74
2022/01/13 09:06:40;;;;;;;1.23;1.13;;;-3.40;73.50;;;;;;5043502;28;20735;-74
2022/01/13 09:09:06;;;;;;;2.13;1.93;;;-3.50;74.00;;;;;;5043355;28;20267;-74
2022/01/13 09:11:31;;;;;;;1.43;1.43;;;-3.50;74.60;;;;;;5042790;28;20194;-74
2022/01/13 09:13:58;;;;;;;1.33;1.23;;;-3.30;74.60;;;;;;5043728;28;20206;-73
2022/01/13 09:16:27;;;;;;;4.90;1.77;;;-3.20;74.60;;;;;;5043507;28;20175;-73
2022/01/13 09:21:23;;;;;;;4.73;3.03;;;-2.80;73.10;;;;;;5039941;28;20213;-75
2022/01/13 09:23:50;;;;;;;1.63;1.57;;;-2.80;73.20;;;;;;5043493;28;20219;-74
2022/01/13 09:26:16;;;;;;;2.87;2.00;;;-2.60;72.70;;;;;;5043487;28;20190;-75
2022/01/13 09:28:42;;;;;;;1.50;1.40;;;-2.30;73.10;;;;;;5042304;28;20223;-75
2022/01/13 09:31:07;;;;;;;1.70;1.13;;;-1.90;72.30;;;;;;5041566;28;20194;-74
2022/01/13 09:33:34;;;;;;;1.93;1.60;;;-1.50;71.20;;;;;;5041889;28;20661;-74
2022/01/13 09:36:00;;;;;;;2.37;2.10;;;-1.40;70.30;;;;;;5043101;28;20664;-75
2022/01/13 09:38:26;;;;;;;1.97;1.53;;;-1.10;69.90;;;;;;5043625;28;20265;-74
2022/01/13 09:40:53;;;;;;;4.00;2.03;;;-0.90;69.10;;;;;;5043476;28;20670;-75
2022/01/13 09:43:26;;;;;;;4.53;2.23;;;-0.80;68.90;;;;;;5041998;28;20188;-74
2022/01/13 09:45:53;;;;;;;2.50;1.97;;;-0.80;68.50;;;;;;5043458;28;20193;-74
2022/01/13 09:48:19;;;;;;;2.03;1.93;;;-1.00;67.70;;;;;;5040980;28;20242;-75
2022/01/13 09:50:46;;;;;;;2.67;1.80;;;-1.10;68.20;;;;;;5041189;28;20183;-75
2022/01/13 09:53:12;;;;;;;2.50;2.33;;;-0.80;68.80;;;;;;5043031;28;20243;-74
2022/01/13 09:55:40;;;;;;;2.77;1.97;;;-0.80;67.90;;;;;;5042348;28;20657;-75
2022/01/13 09:58:10;;;;;;;2.07;1.87;;;-1.00;68.20;;;;;;5042468;28;20277;-75
2022/01/13 10:00:37;;;;;;;9.03;1.33;;;-1.40;68.90;;;;;;5039585;28;20923;-76
2022/01/13 10:03:18;;;;;;;6.80;2.63;;;-1.60;69.50;;;;;;5042906;28;20180;-75
2022/01/13 10:05:49;;;;;;;2.47;2.17;;;-1.80;69.00;;;;;;5042804;28;20179;-74
2022/01/13 10:08:15;;;;;;;5.97;2.20;;;-1.80;69.80;;;;;;5043135;28;20269;-75
2022/01/13 10:10:41;;;;;;;6.07;1.80;;;-1.30;70.10;;;;;;5038800;28;20549;-74
2022/01/13 10:13:11;;;;;;;2.53;2.33;;;-0.90;68.80;;;;;;5041469;28;20444;-74
2022/01/13 10:18:44;;;;;;;2.10;2.10;;;-0.60;68.20;;;;;;5043205;28;20214;-74
2022/01/13 10:21:16;;;;;;;2.97;2.73;;;-0.50;68.40;;;;;;5041739;28;20176;-75
2022/01/13 10:24:00;;;;;;;5.93;3.00;;;-0.70;68.00;;;;;;5042303;28;20751;-74
2022/01/13 10:26:26;;;;;;;4.57;2.60;;;-0.70;68.60;;;;;;5041573;28;20196;-75
2022/01/13 10:28:52;;;;;;;3.67;3.37;;;-0.80;67.60;;;;;;5040945;28;20254;-74
2022/01/13 10:31:18;;;;;;;3.20;2.87;;;-1.00;67.90;;;;;;5042770;28;20183;-74
2022/01/13 10:33:43;;;;;;;1.93;1.70;;;-1.40;68.50;;;;;;5043522;28;20180;-74
2022/01/13 10:36:11;;;;;;;2.77;1.83;;;-1.50;69.70;;;;;;5040864;28;20215;-73
2022/01/13 10:38:52;;;;;;;2.30;1.63;;;-1.20;70.20;;;;;;5040886;28;20195;-74
2022/01/13 10:42:02;;;;;;;3.70;2.40;;;-0.90;70.10;;;;;;5042215;28;20677;-75
2022/01/13 10:44:24;;;;;;;2.60;2.40;;;-0.60;69.40;;;;;;5043040;28;20245;-75
2022/01/13 10:47:02;;;;;;;2.37;2.20;;;-0.30;68.50;;;;;;5039280;28;20176;-74
2022/01/13 10:49:37;;;;;;;2.87;2.67;;;0.10;68.20;;;;;;5042750;28;20212;-74
2022/01/13 10:52:26;;;;;;;2.60;2.50;;;0.40;67.20;;;;;;5045413;28;20183;-74
2022/01/13 10:55:20;;;;;;;2.83;2.47;;;0.40;65.60;;;;;;5043994;28;20180;-74
2022/01/13 10:57:46;;;;;;;3.27;2.37;;;0.00;65.90;;;;;;5051236;28;20641;-75
2022/01/13 11:00:19;;;;;;;4.77;2.83;;;-0.10;66.30;;;;;;5051868;28;20230;-73
2022/01/13 11:02:47;;;;;;;4.20;2.03;;;0.20;66.80;;;;;;5053678;28;20278;-73
2022/01/13 11:05:12;;;;;;;2.03;1.93;;;0.70;67.20;;;;;;5053892;28;20206;-74
2022/01/13 11:07:43;;;;;;;7.93;3.47;;;1.30;66.40;;;;;;5056088;28;20610;-74
2022/01/13 11:10:09;;;;;;;4.20;2.60;;;1.60;64.80;;;;;;5030391;28;20780;-74
2022/01/13 11:12:39;;;;;;;3.67;2.93;;;1.60;63.30;;;;;;5050296;28;20183;-74
2022/01/13 11:15:07;;;;;;;3.40;3.10;;;1.90;63.90;;;;;;5050630;28;20693;-73
2022/01/13 11:17:37;;;;;;;3.20;2.57;;;2.40;63.70;;;;;;5052910;28;20183;-73
2022/01/13 11:20:06;;;;;;;3.33;2.80;;;2.80;63.00;;;;;;5054608;28;20183;-74
2022/01/13 11:22:35;;;;;;;4.70;3.57;;;3.10;60.90;;;;;;5050774;28;20226;-75
2022/01/13 11:25:07;;;;;;;6.17;3.77;;;2.90;60.30;;;;;;5051515;28;20693;-73
2022/01/13 11:27:33;;;;;;;2.67;2.43;;;3.00;61.10;;;;;;5051493;28;20635;-73
2022/01/13 11:30:00;;;;;;;3.40;3.10;;;2.80;60.40;;;;;;5043120;28;20187;-73
2022/01/13 11:32:25;;;;;;;4.60;4.10;;;2.50;60.60;;;;;;5047442;28;20234;-73
2022/01/13 11:34:53;;;;;;;3.13;2.77;;;2.10;61.20;;;;;;5045469;28;20195;-73
2022/01/13 11:37:19;;;;;;;4.33;3.30;;;2.00;61.90;;;;;;5043967;28;20179;-73
2022/01/13 11:39:45;;;;;;;7.80;3.63;;;1.80;62.30;;;;;;5041614;28;20184;-74
2022/01/13 11:42:15;;;;;;;4.63;2.77;;;1.70;62.40;;;;;;5041253;28;20530;-73
2022/01/13 11:44:42;;;;;;;5.97;4.20;;;1.60;62.80;;;;;;5041065;28;20252;-72
2022/01/13 11:47:24;;;;;;;5.70;3.00;;;1.60;62.90;;;;;;5041750;28;20179;-73
2022/01/13 11:50:03;;;;;;;4.70;2.67;;;1.70;63.00;;;;;;5039268;28;20211;-73
2022/01/13 11:52:47;;;;;;;4.60;3.13;;;1.90;63.00;;;;;;5042368;28;20237;-74
2022/01/13 11:55:19;;;;;;;3.97;2.93;;;2.40;62.80;;;;;;5041491;28;20573;-74
2022/01/13 11:57:44;;;;;;;2.73;2.53;;;3.10;63.20;;;;;;5039496;28;20254;-74
2022/01/13 12:00:21;;;;;;;3.70;3.33;;;3.60;60.80;;;;;;5042351;28;20677;-75
2022/01/13 12:02:48;;;;;;;3.80;3.50;;;3.90;60.70;;;;;;5042742;28;20202;-74
2022/01/13 12:05:19;;;;;;;5.13;4.23;;;4.40;60.20;;;;;;5042716;28;20188;-74
2022/01/13 12:07:53;;;;;;;6.07;3.57;;;4.40;59.10;;;;;;5038412;28;20203;-74
2022/01/13 12:10:24;;;;;;;9.20;3.93;;;4.50;59.90;;;;;;5041071;28;20260;-73
2022/01/13 12:12:53;;;;;;;7.97;3.70;;;4.40;58.70;;;;;;5037703;28;20184;-73
2022/01/13 12:15:21;;;;;;;5.20;3.90;;;4.10;58.60;;;;;;5041551;28;20179;-73
2022/01/13 12:17:59;;;;;;;7.83;3.60;;;3.60;59.20;;;;;;5041436;28;20247;-73
2022/01/13 12:20:26;;;;;;;3.63;2.93;;;3.50;60.20;;;;;;5037585;28;20194;-73
2022/01/13 12:23:03;;;;;;;3.77;3.13;;;3.20;60.10;;;;;;5042032;28;20195;-73
2022/01/13 12:25:31;;;;;;;4.13;3.73;;;2.90;60.80;;;;;;5038360;28;20282;-74
2022/01/13 12:28:10;;;;;;;4.13;2.90;;;2.60;61.30;;;;;;5039355;28;20269;-73
2022/01/13 12:30:36;;;;;;;4.87;2.87;;;2.40;61.90;;;;;;5040287;28;20264;-74
2022/01/13 12:33:07;;;;;;;6.03;3.90;;;2.40;62.30;;;;;;5039537;28;20188;-75
2022/01/13 12:35:45;;;;;;;2.70;2.43;;;2.40;62.40;;;;;;5041173;28;20194;-74
2022/01/13 12:38:15;;;;;;;3.70;3.40;;;2.20;62.10;;;;;;5035648;28;20180;-75
2022/01/13 12:41:02;;;;;;;4.40;3.53;;;1.80;62.80;;;;;;5037627;28;20199;-74
2022/01/13 12:46:10;;;;;;;3.63;2.90;;;1.80;63.90;;;;;;5039424;28;20179;-75
2022/01/13 12:48:38;;;;;;;4.33;3.53;;;1.70;63.40;;;;;;5037159;28;20722;-74
2022/01/13 12:51:04;;;;;;;4.43;2.90;;;1.70;63.50;;;;;;5040935;28;20603;-73
2022/01/13 12:53:33;;;;;;;3.97;2.97;;;1.70;63.10;;;;;;5049614;28;20731;-76
2022/01/13 12:56:14;;;;;;;3.20;2.83;;;1.50;63.60;;;;;;5030463;28;20193;-72
2022/01/13 12:58:45;;;;;;;3.27;2.60;;;1.10;63.80;;;;;;5039343;28;20281;-73
2022/01/13 13:01:14;;;;;;;5.53;2.97;;;1.00;64.60;;;;;;5039627;28;20187;-72
2022/01/13 13:03:40;;;;;;;6.77;3.43;;;1.10;65.00;;;;;;5040269;28;20184;-74
2022/01/13 13:06:14;;;;;;;5.33;3.40;;;0.90;64.90;;;;;;5039706;28;20218;-74
2022/01/13 13:08:45;;;;;;;3.60;3.30;;;0.80;65.80;;;;;;5040236;28;20207;-74
2022/01/13 13:11:11;;;;;;;5.90;3.00;;;0.70;65.90;;;;;;5040827;28;20265;-75
2022/01/13 13:13:47;;;;;;;6.57;3.13;;;0.60;66.00;;;;;;5038728;28;20185;-74
2022/01/13 13:16:14;;;;;;;7.53;3.43;;;0.60;66.40;;;;;;5040396;28;20191;-75
2022/01/13 13:18:40;;;;;;;4.90;3.07;;;0.80;66.50;;;;;;5038553;28;20188;-75
2022/01/13 13:21:08;;;;;;;4.33;3.20;;;1.00;66.30;;;;;;5039185;28;20519;-75